createdAt,value
2023-03-13T00:03:22.291Z,1.74
2023-03-13T00:06:49.589Z,1.75
2023-03-13T00:10:17.245Z,1.77
2023-03-13T00:13:45.044Z,1.80
2023-03-13T00:17:12.022Z,1.83
2023-03-13T00:20:39.037Z,1.84
2023-03-13T00:24:06.707Z,1.88
2023-03-13T00:27:36.490Z,1.91
2023-03-13T00:31:08.947Z,1.93
2023-03-13T00:34:36.404Z,1.94
2023-03-13T00:38:03.436Z,1.96
2023-03-13T00:41:32.246Z,1.98
2023-03-13T00:44:59.301Z,2.00
2023-03-13T00:48:26.992Z,2.03
2023-03-13T00:51:54.210Z,2.08
2023-03-13T00:55:21.245Z,2.12
2023-03-13T00:58:49.983Z,2.17
2023-03-13T01:02:17.255Z,2.19
2023-03-13T01:05:44.610Z,2.21
2023-03-13T01:09:13.806Z,2.24
2023-03-13T01:12:42.290Z,2.26
2023-03-13T01:16:11.835Z,2.30
2023-03-13T01:19:37.331Z,2.35
2023-03-13T01:23:04.639Z,2.40
2023-03-13T01:26:32.154Z,2.44
2023-03-13T01:29:59.797Z,2.47
2023-03-13T01:33:27.257Z,2.51
2023-03-13T01:36:54.566Z,2.55
2023-03-13T01:40:22.325Z,2.59
2023-03-13T01:43:49.812Z,2.63
2023-03-13T01:47:17.701Z,2.67
2023-03-13T01:51:12.805Z,2.70
2023-03-13T01:54:43.777Z,2.74
2023-03-13T01:58:13.361Z,2.78
2023-03-13T02:01:42.547Z,2.81
2023-03-13T02:05:10.849Z,2.85
2023-03-13T02:08:44.035Z,2.89
2023-03-13T02:12:14.502Z,2.92
2023-03-13T02:15:43.541Z,2.96
2023-03-13T02:19:21.388Z,3.01
2023-03-13T02:22:54.416Z,3.05
2023-03-13T02:26:21.720Z,3.12
2023-03-13T02:29:48.950Z,3.16
2023-03-13T02:33:18.065Z,3.22
2023-03-13T02:36:47.451Z,3.27
2023-03-13T02:40:22.298Z,3.31
2023-03-13T02:43:50.064Z,3.34
2023-03-13T02:47:20.827Z,3.37
2023-03-13T02:50:48.081Z,3.39
2023-03-13T02:54:20.769Z,3.41
2023-03-13T02:57:48.550Z,3.42
2023-03-13T03:01:15.618Z,3.43
2023-03-13T03:04:43.264Z,3.42
2023-03-13T03:08:11.361Z,3.44
2023-03-13T03:11:39.299Z,3.45
2023-03-13T03:15:11.632Z,3.46
2023-03-13T03:18:42.669Z,3.49
2023-03-13T03:22:09.826Z,3.53
2023-03-13T03:25:36.983Z,3.57
2023-03-13T03:29:05.636Z,3.61
2023-03-13T03:32:33.018Z,3.66
2023-03-13T03:36:05.191Z,3.70
2023-03-13T03:39:32.685Z,3.75
2023-03-13T03:43:00.664Z,3.80
2023-03-13T03:46:29.000Z,3.86
2023-03-13T03:49:56.418Z,3.90
2023-03-13T03:53:23.993Z,3.97
2023-03-13T03:56:51.271Z,4.03
2023-03-13T04:00:20.904Z,4.09
2023-03-13T04:03:50.115Z,4.14
2023-03-13T04:07:19.089Z,4.17
2023-03-13T04:10:46.370Z,4.18
2023-03-13T04:14:13.930Z,4.17
2023-03-13T04:17:41.192Z,4.18
2023-03-13T04:21:10.304Z,4.18
2023-03-13T04:24:42.784Z,4.19
2023-03-13T04:28:10.349Z,4.20
2023-03-13T04:31:42.732Z,4.23
2023-03-13T04:35:30.361Z,4.26
2023-03-13T04:39:15.636Z,4.30
2023-03-13T04:43:10.392Z,4.36
2023-03-13T04:47:00.734Z,4.42
2023-03-13T04:50:45.944Z,4.46
2023-03-13T04:54:44.228Z,4.48
2023-03-13T04:58:22.263Z,4.47
2023-03-13T05:02:22.214Z,4.44
2023-03-13T05:05:49.453Z,4.44
2023-03-13T05:09:39.403Z,4.43
2023-03-13T05:13:30.158Z,4.45
2023-03-13T05:17:14.282Z,4.49
2023-03-13T05:21:12.611Z,4.55
2023-03-13T05:24:56.361Z,4.61
2023-03-13T05:28:29.593Z,4.67
2023-03-13T05:32:15.359Z,4.72
2023-03-13T05:35:56.396Z,4.78
2023-03-13T05:39:24.115Z,4.84
2023-03-13T05:43:13.708Z,4.90
2023-03-13T05:46:47.919Z,4.97
2023-03-13T05:50:30.328Z,5.05
2023-03-13T05:54:19.427Z,5.15
2023-03-13T05:58:02.670Z,5.26
2023-03-13T06:01:56.066Z,5.38
2023-03-13T06:05:30.886Z,5.49
2023-03-13T06:08:59.668Z,5.59
2023-03-13T06:12:29.968Z,5.72
2023-03-13T06:15:58.799Z,5.85
2023-03-13T06:19:42.243Z,5.95
2023-03-13T06:23:09.245Z,6.04
2023-03-13T06:26:36.508Z,6.10
2023-03-13T06:30:04.033Z,6.16
2023-03-13T06:33:31.225Z,6.22
2023-03-13T06:36:58.963Z,6.25
2023-03-13T06:40:26.629Z,6.29
2023-03-13T06:43:53.615Z,6.32
2023-03-13T06:47:20.936Z,6.36
2023-03-13T06:50:48.103Z,6.43
2023-03-13T06:54:15.147Z,6.51
2023-03-13T06:57:42.331Z,6.58
2023-03-13T07:01:11.696Z,6.69
2023-03-13T07:04:38.828Z,6.80
2023-03-13T07:08:06.705Z,6.95
2023-03-13T07:11:34.070Z,7.10
2023-03-13T07:15:01.068Z,7.27
2023-03-13T07:18:28.572Z,7.42
2023-03-13T07:21:57.079Z,7.50
2023-03-13T07:25:24.293Z,7.53
2023-03-13T07:28:51.592Z,7.57
2023-03-13T07:32:19.059Z,7.65
2023-03-13T07:35:51.147Z,7.68
2023-03-13T07:39:18.347Z,7.69
2023-03-13T07:42:45.555Z,7.73
2023-03-13T07:46:16.012Z,7.82
2023-03-13T07:49:44.275Z,7.90
2023-03-13T07:53:14.166Z,8.00
2023-03-13T07:56:42.182Z,8.10
2023-03-13T08:00:16.746Z,8.19
2023-03-13T08:03:45.326Z,8.29
2023-03-13T08:07:13.540Z,8.34
2023-03-13T08:10:40.723Z,8.38
2023-03-13T08:14:08.028Z,8.42
2023-03-13T08:17:35.431Z,8.48
2023-03-13T08:21:06.398Z,8.56
2023-03-13T08:24:33.473Z,8.66
2023-03-13T08:28:02.479Z,8.75
2023-03-13T08:31:32.731Z,8.83
2023-03-13T08:34:59.733Z,8.89
2023-03-13T08:38:27.062Z,8.97
2023-03-13T08:41:54.108Z,9.06
2023-03-13T08:45:21.281Z,9.10
2023-03-13T08:48:52.435Z,9.12
2023-03-13T08:52:19.413Z,9.16
2023-03-13T08:55:53.322Z,9.20
2023-03-13T08:59:20.555Z,9.23
2023-03-13T09:02:47.576Z,9.28
2023-03-13T09:06:15.324Z,9.33
2023-03-13T09:09:42.439Z,9.44
2023-03-13T09:13:10.002Z,9.56
2023-03-13T09:16:37.376Z,9.65
2023-03-13T09:20:05.879Z,9.68
2023-03-13T09:23:33.006Z,9.76
2023-03-13T09:27:01.636Z,9.86
2023-03-13T09:30:29.131Z,9.91
2023-03-13T09:33:58.417Z,9.89
2023-03-13T09:37:26.036Z,9.85
2023-03-13T09:41:05.789Z,9.79
2023-03-13T09:44:40.209Z,9.74
2023-03-13T09:48:13.202Z,9.68
2023-03-13T09:51:44.821Z,9.69
2023-03-13T09:55:21.593Z,9.73
2023-03-13T09:58:55.065Z,9.78
2023-03-13T10:02:29.651Z,9.85
2023-03-13T10:05:59.690Z,9.91
2023-03-13T10:09:32.409Z,9.91
2023-03-13T10:13:11.530Z,9.90
2023-03-13T10:16:45.832Z,9.86
2023-03-13T10:20:22.381Z,9.78
2023-03-13T10:23:54.910Z,9.66
2023-03-13T10:27:21.967Z,9.57
2023-03-13T10:30:54.551Z,9.53
2023-03-13T10:34:21.896Z,9.50
2023-03-13T10:37:48.955Z,9.46
2023-03-13T10:41:27.866Z,9.43
2023-03-13T10:44:59.669Z,9.48
2023-03-13T10:48:31.379Z,9.54
2023-03-13T10:52:00.356Z,9.59
2023-03-13T10:55:28.598Z,9.61
2023-03-13T10:58:56.282Z,9.61
2023-03-13T11:02:34.076Z,9.63
2023-03-13T11:06:04.782Z,9.66
2023-03-13T11:09:32.394Z,9.69
2023-03-13T11:13:01.189Z,9.69
2023-03-13T11:16:30.692Z,9.70
2023-03-13T11:20:06.340Z,9.70
2023-03-13T11:23:40.801Z,9.68
2023-03-13T11:27:16.862Z,9.63
2023-03-13T11:31:02.769Z,9.58
2023-03-13T11:34:38.895Z,9.56
2023-03-13T11:38:14.553Z,9.54
2023-03-13T11:41:54.080Z,9.48
2023-03-13T11:45:33.297Z,9.43
2023-03-13T11:49:24.453Z,9.37
2023-03-13T11:53:30.826Z,9.33
2023-03-13T11:57:14.699Z,9.30
2023-03-13T12:00:49.049Z,9.30
2023-03-13T12:04:23.847Z,9.31
2023-03-13T12:07:56.253Z,9.31
2023-03-13T12:11:28.897Z,9.31
2023-03-13T12:15:00.954Z,9.31
2023-03-13T12:18:34.430Z,9.31
2023-03-13T12:22:08.381Z,9.32
2023-03-13T12:25:41.116Z,9.38
2023-03-13T12:29:18.914Z,9.42
2023-03-13T12:32:54.001Z,9.44
2023-03-13T12:36:29.332Z,9.43
2023-03-13T12:40:00.492Z,9.43
2023-03-13T12:43:32.821Z,9.44
2023-03-13T12:47:09.471Z,9.48
2023-03-13T12:50:45.468Z,9.54
2023-03-13T12:54:46.419Z,9.63
2023-03-13T12:58:40.711Z,9.74
2023-03-13T13:02:20.836Z,9.79
2023-03-13T13:06:07.243Z,9.85
2023-03-13T13:09:37.242Z,9.90
2023-03-13T13:13:32.343Z,9.95
2023-03-13T13:17:16.468Z,10.00
2023-03-13T13:20:58.868Z,10.06
2023-03-13T13:24:52.928Z,10.15
2023-03-13T13:28:40.117Z,10.31
2023-03-13T13:32:15.337Z,10.49
2023-03-13T13:35:42.874Z,10.64
2023-03-13T13:39:34.009Z,10.74
2023-03-13T13:43:02.936Z,10.81
2023-03-13T13:46:33.460Z,10.89
2023-03-13T13:50:01.516Z,11.00
2023-03-13T13:53:34.812Z,11.09
2023-03-13T13:57:04.038Z,11.20
2023-03-13T14:00:35.970Z,11.27
2023-03-13T14:04:13.962Z,11.32
2023-03-13T14:08:01.372Z,11.38
2023-03-13T14:11:34.572Z,11.42
2023-03-13T14:15:15.868Z,11.47
2023-03-13T14:18:44.869Z,11.53
2023-03-13T14:22:14.416Z,11.57
2023-03-13T14:25:45.248Z,11.61
2023-03-13T14:29:20.614Z,11.65
2023-03-13T14:32:48.088Z,11.76
2023-03-13T14:36:15.099Z,11.87
2023-03-13T14:39:48.763Z,11.95
2023-03-13T14:43:33.384Z,11.99
2023-03-13T14:47:05.505Z,12.01
2023-03-13T14:50:33.181Z,12.04
2023-03-13T14:54:01.918Z,12.04
2023-03-13T14:57:29.804Z,12.00
2023-03-13T15:00:58.926Z,11.94
2023-03-13T15:04:54.673Z,11.94
2023-03-13T15:08:24.071Z,12.11
2023-03-13T15:12:02.577Z,12.28
2023-03-13T15:15:29.766Z,12.47
2023-03-13T15:18:57.700Z,12.65
2023-03-13T15:22:30.145Z,12.77
2023-03-13T15:25:57.238Z,12.81
2023-03-13T15:29:24.362Z,12.78
2023-03-13T15:32:52.141Z,12.75
2023-03-13T15:36:19.424Z,12.74
2023-03-13T15:39:46.869Z,12.76
2023-03-13T15:43:14.715Z,12.70
2023-03-13T15:46:41.805Z,12.60
2023-03-13T15:50:12.339Z,12.51
2023-03-13T15:53:39.542Z,12.41
2023-03-13T15:57:06.668Z,12.33
2023-03-13T16:00:33.665Z,12.27
2023-03-13T16:04:00.791Z,12.23
2023-03-13T16:07:28.166Z,12.21
2023-03-13T16:10:55.960Z,12.22
2023-03-13T16:14:23.155Z,12.22
2023-03-13T16:17:50.665Z,12.22
2023-03-13T16:21:23.083Z,12.21
2023-03-13T16:24:50.132Z,12.24
2023-03-13T16:28:17.787Z,12.27
2023-03-13T16:31:45.110Z,12.25
2023-03-13T16:35:12.610Z,12.20
2023-03-13T16:38:39.600Z,12.13
2023-03-13T16:42:07.343Z,12.04
2023-03-13T16:45:34.378Z,11.94
2023-03-13T16:49:01.471Z,11.83
2023-03-13T16:52:28.717Z,11.75
2023-03-13T16:55:56.443Z,11.73
2023-03-13T16:59:26.967Z,11.71
2023-03-13T17:03:01.729Z,11.70
2023-03-13T17:06:33.296Z,11.68
2023-03-13T17:10:06.179Z,11.66
2023-03-13T17:13:33.631Z,11.61
2023-03-13T17:17:01.277Z,11.58
2023-03-13T17:20:32.390Z,11.56
2023-03-13T17:24:03.600Z,11.52
2023-03-13T17:27:46.480Z,11.48
2023-03-13T17:31:20.235Z,11.45
2023-03-13T17:34:48.345Z,11.43
2023-03-13T17:38:21.171Z,11.40
2023-03-13T17:41:48.695Z,11.36
2023-03-13T17:45:18.619Z,11.32
2023-03-13T17:48:47.565Z,11.28
2023-03-13T17:52:21.315Z,11.25
2023-03-13T17:55:51.672Z,11.23
2023-03-13T17:59:22.723Z,11.22
2023-03-13T18:02:50.509Z,11.18
2023-03-13T18:06:24.390Z,11.13
2023-03-13T18:09:57.590Z,11.08
2023-03-13T18:13:25.252Z,11.04
2023-03-13T18:16:57.315Z,11.00
2023-03-13T18:20:28.063Z,10.97
2023-03-13T18:24:00.403Z,10.97
2023-03-13T18:27:32.747Z,10.99
2023-03-13T18:31:01.405Z,10.98
2023-03-13T18:34:30.256Z,10.97
2023-03-13T18:38:00.121Z,10.95
2023-03-13T18:41:27.436Z,10.92
2023-03-13T18:44:54.725Z,10.89
2023-03-13T18:48:39.778Z,10.87
2023-03-13T18:52:11.703Z,10.83
2023-03-13T18:55:38.833Z,10.82
2023-03-13T18:59:06.352Z,10.77
2023-03-13T19:02:33.451Z,10.74
2023-03-13T19:06:01.384Z,10.71
2023-03-13T19:09:46.464Z,10.69
2023-03-13T19:13:16.412Z,10.66
2023-03-13T19:16:50.160Z,10.64
2023-03-13T19:20:21.058Z,10.62
2023-03-13T19:23:48.616Z,10.59
2023-03-13T19:27:18.270Z,10.57
2023-03-13T19:30:44.638Z,10.55
2023-03-13T19:34:12.716Z,10.55
2023-03-13T19:37:40.406Z,10.55
2023-03-13T19:41:08.357Z,10.54
2023-03-13T19:44:36.033Z,10.56
2023-03-13T19:48:03.895Z,10.58
2023-03-13T19:51:32.805Z,10.61
2023-03-13T19:55:05.187Z,10.61
2023-03-13T19:58:32.648Z,10.62
2023-03-13T20:02:03.298Z,10.63
2023-03-13T20:05:30.932Z,10.64
2023-03-13T20:09:03.740Z,10.64
2023-03-13T20:12:31.262Z,10.64
2023-03-13T20:15:59.725Z,10.63
2023-03-13T20:19:56.016Z,10.62
2023-03-13T20:23:23.088Z,10.63
2023-03-13T20:26:50.432Z,10.67
2023-03-13T20:30:18.409Z,10.72
2023-03-13T20:33:45.743Z,10.75
2023-03-13T20:37:12.843Z,10.81
2023-03-13T20:40:39.973Z,10.86
2023-03-13T20:44:07.241Z,10.93
2023-03-13T20:47:34.531Z,11.00
2023-03-13T20:51:02.198Z,11.05
2023-03-13T20:54:29.495Z,11.10
2023-03-13T20:57:56.731Z,11.14
2023-03-13T21:01:26.055Z,11.17
2023-03-13T21:04:55.005Z,11.21
2023-03-13T21:08:22.467Z,11.24
2023-03-13T21:11:49.705Z,11.27
2023-03-13T21:15:17.512Z,11.32
2023-03-13T21:18:45.126Z,11.37
2023-03-13T21:22:12.949Z,11.43
2023-03-13T21:25:40.075Z,11.47
2023-03-13T21:29:09.308Z,11.52
2023-03-13T21:32:39.742Z,11.55
2023-03-13T21:36:07.867Z,11.56
2023-03-13T21:39:34.894Z,11.60
2023-03-13T21:43:04.288Z,11.64
2023-03-13T21:46:33.728Z,11.67
2023-03-13T21:50:01.432Z,11.70
2023-03-13T21:53:28.785Z,11.74
2023-03-13T21:56:57.295Z,11.75
2023-03-13T22:00:25.259Z,11.74
2023-03-13T22:03:52.881Z,11.73
2023-03-13T22:07:20.090Z,11.72
2023-03-13T22:10:52.351Z,11.72
2023-03-13T22:14:21.548Z,11.73
2023-03-13T22:17:48.607Z,11.75
2023-03-13T22:21:17.535Z,11.82
2023-03-13T22:24:44.790Z,11.90
2023-03-13T22:28:12.544Z,11.98
2023-03-13T22:31:39.770Z,12.04
2023-03-13T22:35:08.758Z,12.11
2023-03-13T22:38:39.037Z,12.13
2023-03-13T22:42:06.724Z,12.13
2023-03-13T22:45:34.123Z,12.14
2023-03-13T22:49:01.212Z,12.12
2023-03-13T22:52:31.093Z,12.10
2023-03-13T22:55:58.231Z,12.07
2023-03-13T22:59:25.449Z,12.05
2023-03-13T23:02:54.728Z,12.04
2023-03-13T23:06:24.151Z,12.01
2023-03-13T23:09:51.282Z,11.97
2023-03-13T23:13:18.457Z,11.93
2023-03-13T23:16:45.467Z,11.87
2023-03-13T23:20:14.630Z,11.79
2023-03-13T23:23:43.040Z,11.72
2023-03-13T23:27:10.051Z,11.68
2023-03-13T23:30:37.827Z,11.62
2023-03-13T23:34:05.003Z,11.57
2023-03-13T23:37:33.289Z,11.51
2023-03-13T23:41:00.363Z,11.46
2023-03-13T23:44:27.541Z,11.42
2023-03-13T23:47:57.046Z,11.39
2023-03-13T23:51:24.300Z,11.37
2023-03-13T23:54:53.256Z,11.36
2023-03-13T23:58:20.357Z,11.39
